createdAt,value
2024-02-23T00:02:06.005Z,7.88
2024-02-23T00:04:32.485Z,7.89
2024-02-23T00:06:59.353Z,7.84
2024-02-23T00:09:25.792Z,7.78
2024-02-23T00:11:52.266Z,7.75
2024-02-23T00:14:19.785Z,7.71
2024-02-23T00:16:46.314Z,7.61
2024-02-23T00:19:13.169Z,7.60
2024-02-23T00:21:40.749Z,7.59
2024-02-23T00:24:07.632Z,7.53
2024-02-23T00:26:34.101Z,7.52
2024-02-23T00:29:00.578Z,7.50
2024-02-23T00:31:27.017Z,7.52
2024-02-23T00:33:53.446Z,7.45
2024-02-23T00:36:19.889Z,7.52
2024-02-23T00:38:46.336Z,7.46
2024-02-23T00:41:12.785Z,7.37
2024-02-23T00:43:42.588Z,7.37
2024-02-23T00:46:09.669Z,7.30
2024-02-23T00:48:36.319Z,7.29
2024-02-23T00:51:03.955Z,7.24
2024-02-23T00:53:32.919Z,7.18
2024-02-23T00:55:59.758Z,7.20
2024-02-23T00:58:26.128Z,7.18
2024-02-23T01:00:52.532Z,7.12
2024-02-23T01:03:19.043Z,7.11
2024-02-23T01:09:45.325Z,7.06
2024-02-23T01:12:11.786Z,7.00
2024-02-23T01:14:38.264Z,6.99
2024-02-23T01:17:04.651Z,6.95
2024-02-23T01:19:31.055Z,6.95
2024-02-23T01:22:01.164Z,6.89
2024-02-23T01:24:31.295Z,6.83
2024-02-23T01:26:58.797Z,6.82
2024-02-23T01:29:27.521Z,6.71
2024-02-23T01:31:55.524Z,6.63
2024-02-23T01:34:22.925Z,6.58
2024-02-23T01:36:49.874Z,6.45
2024-02-23T01:39:16.218Z,6.34
2024-02-23T01:41:44.841Z,6.34
2024-02-23T01:44:12.016Z,6.36
2024-02-23T01:46:38.458Z,6.31
2024-02-23T01:49:06.082Z,6.31
2024-02-23T01:51:32.754Z,6.30
2024-02-23T01:53:59.132Z,6.31
2024-02-23T01:56:25.841Z,6.25
2024-02-23T01:58:53.622Z,6.17
2024-02-23T02:01:20.235Z,6.19
2024-02-23T02:03:46.641Z,6.24
2024-02-23T02:06:13.386Z,6.21
2024-02-23T02:08:39.974Z,6.20
2024-02-23T02:11:06.502Z,6.08
2024-02-23T02:13:32.981Z,6.06
2024-02-23T02:16:02.071Z,5.96
2024-02-23T02:18:28.806Z,5.97
2024-02-23T02:20:57.954Z,5.81
2024-02-23T02:23:25.425Z,5.77
2024-02-23T02:25:58.863Z,5.71
2024-02-23T02:28:26.180Z,5.63
2024-02-23T02:30:57.078Z,5.63
2024-02-23T02:33:23.901Z,5.50
2024-02-23T02:35:51.014Z,5.50
2024-02-23T02:38:17.743Z,5.48
2024-02-23T02:40:44.230Z,5.46
2024-02-23T02:43:10.619Z,5.34
2024-02-23T02:45:36.991Z,5.29
2024-02-23T02:48:04.100Z,5.26
2024-02-23T02:50:30.669Z,5.26
2024-02-23T02:52:57.540Z,5.23
2024-02-23T02:55:24.035Z,5.21
2024-02-23T02:57:50.380Z,5.31
2024-02-23T03:00:17.224Z,5.24
2024-02-23T03:02:43.651Z,5.26
2024-02-23T03:05:10.161Z,5.30
2024-02-23T03:07:36.920Z,5.27
2024-02-23T03:10:03.604Z,5.37
2024-02-23T03:12:29.991Z,5.28
2024-02-23T03:14:57.049Z,5.29
2024-02-23T03:17:24.199Z,5.30
2024-02-23T03:19:53.616Z,5.35
2024-02-23T03:22:20.106Z,5.34
2024-02-23T03:24:46.506Z,5.24
2024-02-23T03:27:12.945Z,5.25
2024-02-23T03:29:39.849Z,5.22
2024-02-23T03:32:07.137Z,5.27
2024-02-23T03:34:33.706Z,5.17
2024-02-23T03:37:01.264Z,5.16
2024-02-23T03:39:27.664Z,5.08
2024-02-23T03:41:54.004Z,5.18
2024-02-23T03:44:20.432Z,5.02
2024-02-23T03:46:46.908Z,5.02
2024-02-23T03:49:13.346Z,5.06
2024-02-23T03:51:40.602Z,5.09
2024-02-23T03:54:07.947Z,5.00
2024-02-23T03:56:43.887Z,5.02
2024-02-23T03:59:10.993Z,4.91
2024-02-23T04:01:40.708Z,4.88
2024-02-23T04:04:07.449Z,4.79
2024-02-23T04:06:35.329Z,4.80
2024-02-23T04:09:01.930Z,4.83
2024-02-23T04:11:28.357Z,4.83
2024-02-23T04:13:54.851Z,4.79
2024-02-23T04:16:24.794Z,4.82
2024-02-23T04:18:51.968Z,4.79
2024-02-23T04:21:18.373Z,4.81
2024-02-23T04:23:44.816Z,4.81
2024-02-23T04:26:11.300Z,4.78
2024-02-23T04:28:41.544Z,4.80
2024-02-23T04:31:10.136Z,4.72
2024-02-23T04:33:37.692Z,4.69
2024-02-23T04:36:04.952Z,4.72
2024-02-23T04:38:31.838Z,4.71
2024-02-23T04:40:59.010Z,4.76
2024-02-23T04:43:26.295Z,4.70
2024-02-23T04:45:52.784Z,4.71
2024-02-23T04:48:19.212Z,4.62
2024-02-23T04:50:45.621Z,4.51
2024-02-23T04:53:12.112Z,4.44
2024-02-23T04:55:38.526Z,4.37
2024-02-23T04:58:05.135Z,4.20
2024-02-23T05:00:34.195Z,4.06
2024-02-23T05:03:04.077Z,4.00
2024-02-23T05:05:31.744Z,3.91
2024-02-23T05:07:58.542Z,3.93
2024-02-23T05:10:25.050Z,3.99
2024-02-23T05:12:51.686Z,3.91
2024-02-23T05:15:18.081Z,3.92
2024-02-23T05:17:44.511Z,3.89
2024-02-23T05:20:11.803Z,3.87
2024-02-23T05:22:39.346Z,3.87
2024-02-23T05:25:06.282Z,3.87
2024-02-23T05:27:32.885Z,3.92
2024-02-23T05:29:59.476Z,3.95
2024-02-23T05:32:25.881Z,3.94
2024-02-23T05:34:54.071Z,4.01
2024-02-23T05:37:20.949Z,3.95
2024-02-23T05:39:48.150Z,3.96
2024-02-23T05:42:14.720Z,3.90
2024-02-23T05:44:44.115Z,3.89
2024-02-23T05:47:11.091Z,3.97
2024-02-23T05:49:37.536Z,4.04
2024-02-23T05:52:04.125Z,4.08
2024-02-23T05:54:30.623Z,4.08
2024-02-23T05:56:57.052Z,4.08
2024-02-23T05:59:23.538Z,4.22
2024-02-23T06:01:49.956Z,4.21
2024-02-23T06:04:16.434Z,4.24
2024-02-23T06:06:44.483Z,4.25
2024-02-23T06:09:11.067Z,4.24
2024-02-23T06:11:37.601Z,4.29
2024-02-23T06:14:04.048Z,4.28
2024-02-23T06:16:30.444Z,4.23
2024-02-23T06:18:56.941Z,4.27
2024-02-23T06:21:23.449Z,4.28
2024-02-23T06:23:49.848Z,4.29
2024-02-23T06:26:16.585Z,4.37
2024-02-23T06:28:43.203Z,4.36
2024-02-23T06:31:10.520Z,4.42
2024-02-23T06:33:37.504Z,4.51
2024-02-23T06:36:05.114Z,4.62
2024-02-23T06:38:31.572Z,4.75
2024-02-23T06:40:57.933Z,4.80
2024-02-23T06:43:24.443Z,4.82
2024-02-23T06:45:51.037Z,4.88
2024-02-23T06:48:17.992Z,4.88
2024-02-23T06:50:44.555Z,4.94
2024-02-23T06:53:11.425Z,4.97
2024-02-23T06:55:37.923Z,4.99
2024-02-23T06:58:05.848Z,5.04
2024-02-23T07:00:32.276Z,5.03
2024-02-23T07:03:04.523Z,5.02
2024-02-23T07:05:31.289Z,5.11
2024-02-23T07:07:58.186Z,5.13
2024-02-23T07:10:26.166Z,5.18
2024-02-23T07:12:54.332Z,5.15
2024-02-23T07:15:21.530Z,5.18
2024-02-23T07:17:48.304Z,5.24
2024-02-23T07:20:15.117Z,5.20
2024-02-23T07:22:45.871Z,5.22
2024-02-23T07:25:12.638Z,5.27
2024-02-23T07:27:39.003Z,5.43
2024-02-23T07:30:06.423Z,5.47
2024-02-23T07:32:33.110Z,5.50
2024-02-23T07:34:59.870Z,5.62
2024-02-23T07:37:29.066Z,5.74
2024-02-23T07:39:55.441Z,5.86
2024-02-23T07:42:21.867Z,5.81
2024-02-23T07:44:48.241Z,5.79
2024-02-23T07:47:14.620Z,5.77
2024-02-23T07:49:43.997Z,5.72
2024-02-23T07:52:10.435Z,5.73
2024-02-23T07:54:36.890Z,5.74
2024-02-23T07:57:05.536Z,5.77
2024-02-23T07:59:32.382Z,5.78
2024-02-23T08:01:58.934Z,5.81
2024-02-23T08:04:25.345Z,5.80
2024-02-23T08:06:52.189Z,5.76
2024-02-23T08:09:18.692Z,5.79
2024-02-23T08:11:45.256Z,5.82
2024-02-23T08:14:12.305Z,5.84
2024-02-23T08:16:38.878Z,5.86
2024-02-23T08:19:05.290Z,5.97
2024-02-23T08:21:31.694Z,5.96
2024-02-23T08:23:58.182Z,6.03
2024-02-23T08:26:24.578Z,6.03
2024-02-23T08:28:50.977Z,6.09
2024-02-23T08:31:17.765Z,6.15
2024-02-23T08:33:44.137Z,6.31
2024-02-23T08:36:11.635Z,6.54
2024-02-23T08:38:38.399Z,6.63
2024-02-23T08:41:05.243Z,6.61
2024-02-23T08:43:31.674Z,6.72
2024-02-23T08:46:02.117Z,6.64
2024-02-23T08:48:31.506Z,6.78
2024-02-23T08:50:57.981Z,6.72
2024-02-23T08:53:24.399Z,6.65
2024-02-23T08:55:50.752Z,6.59
2024-02-23T08:58:17.099Z,6.54
2024-02-23T09:00:43.550Z,6.55
2024-02-23T09:03:09.992Z,6.60
2024-02-23T09:05:36.652Z,6.60
2024-02-23T09:08:03.294Z,6.63
2024-02-23T09:10:29.746Z,6.61
2024-02-23T09:12:56.141Z,6.50
2024-02-23T09:15:22.603Z,6.56
2024-02-23T09:17:49.089Z,6.55
2024-02-23T09:20:15.600Z,6.60
2024-02-23T09:22:42.050Z,6.70
2024-02-23T09:25:09.543Z,6.67
2024-02-23T09:27:39.937Z,6.65
2024-02-23T09:30:08.073Z,6.78
2024-02-23T09:32:34.607Z,6.91
2024-02-23T09:35:01.112Z,7.14
2024-02-23T09:37:27.446Z,7.25
2024-02-23T09:39:53.834Z,7.30
2024-02-23T09:42:24.149Z,7.24
2024-02-23T09:44:58.658Z,7.11
2024-02-23T09:47:26.800Z,7.05
2024-02-23T09:49:54.007Z,6.98
2024-02-23T09:52:21.695Z,7.10
2024-02-23T09:54:48.255Z,7.06
2024-02-23T09:57:16.855Z,7.05
2024-02-23T09:59:43.317Z,7.18
2024-02-23T10:02:13.749Z,7.22
2024-02-23T10:04:40.518Z,7.35
2024-02-23T10:07:07.909Z,7.44
2024-02-23T10:09:34.334Z,7.66
2024-02-23T10:12:00.914Z,7.84
2024-02-23T10:14:27.494Z,7.68
2024-02-23T10:16:55.038Z,7.70
2024-02-23T10:19:22.491Z,7.81
2024-02-23T10:21:49.368Z,7.69
2024-02-23T10:24:18.777Z,7.72
2024-02-23T10:26:45.702Z,7.68
2024-02-23T10:29:13.032Z,7.60
2024-02-23T10:31:40.947Z,7.72
2024-02-23T10:34:13.226Z,7.87
2024-02-23T10:36:43.346Z,8.05
2024-02-23T10:39:10.817Z,7.85
2024-02-23T10:41:40.457Z,7.90
2024-02-23T10:44:08.256Z,7.87
2024-02-23T10:46:35.307Z,7.79
2024-02-23T10:49:04.024Z,7.76
2024-02-23T10:51:31.684Z,7.73
2024-02-23T10:53:58.550Z,7.75
2024-02-23T10:56:26.976Z,7.85
2024-02-23T10:58:53.411Z,7.89
2024-02-23T11:01:21.385Z,7.82
2024-02-23T11:03:51.472Z,7.77
2024-02-23T11:06:22.239Z,7.96
2024-02-23T11:08:49.969Z,7.81
2024-02-23T11:11:18.530Z,7.74
2024-02-23T11:13:46.216Z,7.69
2024-02-23T11:16:23.222Z,7.74
2024-02-23T11:18:49.715Z,7.83
2024-02-23T11:21:16.202Z,8.00
2024-02-23T11:23:44.075Z,8.00
2024-02-23T11:26:12.259Z,7.94
2024-02-23T11:28:55.114Z,8.18
2024-02-23T11:31:24.798Z,8.34
2024-02-23T11:33:53.021Z,8.33
2024-02-23T11:36:29.424Z,8.26
2024-02-23T11:38:58.580Z,8.29
2024-02-23T11:41:26.761Z,8.56
2024-02-23T11:43:55.138Z,8.58
2024-02-23T11:46:22.185Z,8.53
2024-02-23T11:48:54.487Z,8.54
2024-02-23T11:51:22.690Z,8.79
2024-02-23T11:53:49.709Z,8.95
2024-02-23T11:56:16.687Z,9.38
2024-02-23T11:58:43.504Z,9.23
2024-02-23T12:01:10.151Z,9.09
2024-02-23T12:03:36.737Z,8.97
2024-02-23T12:06:03.901Z,8.81
2024-02-23T12:08:38.860Z,8.83
2024-02-23T12:13:33.638Z,8.88
2024-02-23T12:16:00.244Z,9.02
2024-02-23T12:18:30.960Z,9.30
2024-02-23T12:21:06.130Z,9.73
2024-02-23T12:23:46.653Z,9.68
2024-02-23T12:26:15.105Z,9.50
2024-02-23T12:28:42.644Z,9.42
2024-02-23T12:31:09.352Z,9.29
2024-02-23T12:33:37.571Z,9.29
2024-02-23T12:36:05.485Z,9.21
2024-02-23T12:38:32.395Z,9.15
2024-02-23T12:41:00.541Z,9.07
2024-02-23T12:45:58.360Z,9.15
2024-02-23T12:48:24.916Z,8.98
2024-02-23T12:50:52.740Z,9.16
2024-02-23T12:53:35.361Z,9.32
2024-02-23T12:56:03.695Z,9.32
2024-02-23T12:58:30.493Z,9.13
2024-02-23T13:00:57.910Z,9.04
2024-02-23T13:03:26.513Z,9.26
2024-02-23T13:05:53.297Z,9.44
2024-02-23T13:08:19.792Z,9.71
2024-02-23T13:10:46.702Z,9.62
2024-02-23T13:13:15.804Z,9.51
2024-02-23T13:15:43.151Z,9.68
2024-02-23T13:18:10.213Z,9.80
2024-02-23T13:20:38.279Z,9.86
2024-02-23T13:23:05.438Z,9.90
2024-02-23T13:25:32.452Z,9.79
2024-02-23T13:27:58.965Z,9.75
2024-02-23T13:30:25.301Z,9.72
2024-02-23T13:32:52.262Z,9.87
2024-02-23T13:35:18.814Z,9.86
2024-02-23T13:37:45.409Z,9.82
2024-02-23T13:40:12.229Z,9.77
2024-02-23T13:42:39.815Z,9.77
2024-02-23T13:45:09.810Z,9.75
2024-02-23T13:47:36.784Z,9.75
2024-02-23T13:50:03.984Z,9.76
2024-02-23T13:52:31.064Z,9.74
2024-02-23T13:54:57.608Z,9.76
2024-02-23T13:57:24.113Z,9.65
2024-02-23T13:59:50.601Z,9.63
2024-02-23T14:02:19.833Z,9.65
2024-02-23T14:04:46.488Z,9.61
2024-02-23T14:07:13.034Z,9.48
2024-02-23T14:09:39.559Z,9.51
2024-02-23T14:12:06.113Z,9.52
2024-02-23T14:14:32.581Z,9.44
2024-02-23T14:16:59.100Z,9.33
2024-02-23T14:19:26.571Z,9.33
2024-02-23T14:21:53.447Z,9.38
2024-02-23T14:24:19.817Z,9.33
2024-02-23T14:26:46.282Z,9.41
2024-02-23T14:29:12.752Z,9.51
2024-02-23T14:31:39.189Z,9.54
2024-02-23T14:34:05.576Z,9.49
2024-02-23T14:36:34.995Z,9.43
2024-02-23T14:39:01.604Z,9.54
2024-02-23T14:41:28.651Z,9.33
2024-02-23T14:43:55.082Z,9.25
2024-02-23T14:46:21.621Z,9.22
2024-02-23T14:48:49.630Z,9.14
2024-02-23T14:51:17.020Z,9.05
2024-02-23T14:53:43.683Z,8.97
2024-02-23T14:56:10.239Z,9.02
2024-02-23T14:58:36.674Z,9.02
2024-02-23T15:01:03.241Z,8.98
2024-02-23T15:03:29.764Z,8.92
2024-02-23T15:05:56.174Z,8.88
2024-02-23T15:08:22.652Z,8.93
2024-02-23T15:10:49.059Z,8.95
2024-02-23T15:13:15.393Z,8.87
2024-02-23T15:15:43.223Z,8.91
2024-02-23T15:18:09.771Z,8.93
2024-02-23T15:20:36.714Z,8.78
2024-02-23T15:23:03.295Z,8.72
2024-02-23T15:25:29.676Z,8.72
2024-02-23T15:27:58.803Z,8.63
2024-02-23T15:30:28.247Z,8.68
2024-02-23T15:32:55.207Z,8.68
2024-02-23T15:35:21.863Z,8.67
2024-02-23T15:37:48.568Z,8.63
2024-02-23T15:40:16.156Z,8.68
2024-02-23T15:42:43.001Z,8.71
2024-02-23T15:45:09.750Z,8.73
2024-02-23T15:47:36.443Z,8.68
2024-02-23T15:50:22.374Z,8.62
2024-02-23T15:52:49.801Z,8.59
2024-02-23T15:55:16.341Z,8.57
2024-02-23T15:57:44.064Z,8.59
2024-02-23T16:00:13.359Z,8.51
2024-02-23T16:02:40.605Z,8.51
2024-02-23T16:05:08.257Z,8.50
2024-02-23T16:07:34.884Z,8.51
2024-02-23T16:10:01.713Z,8.47
2024-02-23T16:12:28.281Z,8.40
2024-02-23T16:14:54.768Z,8.42
2024-02-23T16:17:21.265Z,8.37
2024-02-23T16:19:47.738Z,8.34
2024-02-23T16:22:14.544Z,8.32
2024-02-23T16:24:42.601Z,8.29
2024-02-23T16:27:09.852Z,8.26
2024-02-23T16:29:36.898Z,8.23
2024-02-23T16:32:03.753Z,8.29
2024-02-23T16:34:30.369Z,8.21
2024-02-23T16:36:56.795Z,8.09
2024-02-23T16:39:23.219Z,8.08
2024-02-23T16:41:49.804Z,8.05
2024-02-23T16:44:20.027Z,8.02
2024-02-23T16:46:47.402Z,7.99
2024-02-23T16:49:13.976Z,7.91
2024-02-23T16:51:41.039Z,7.92
2024-02-23T16:54:07.510Z,7.90
2024-02-23T16:56:33.920Z,7.89
2024-02-23T16:59:00.415Z,7.89
2024-02-23T17:01:27.186Z,7.84
2024-02-23T17:03:53.628Z,7.82
2024-02-23T17:06:20.126Z,7.80
2024-02-23T17:08:46.724Z,7.77
2024-02-23T17:11:13.173Z,7.74
2024-02-23T17:13:39.578Z,7.69
2024-02-23T17:16:06.332Z,7.69
2024-02-23T17:18:32.840Z,7.70
2024-02-23T17:21:01.475Z,7.62
2024-02-23T17:23:28.389Z,7.62
2024-02-23T17:25:54.920Z,7.59
2024-02-23T17:28:21.326Z,7.52
2024-02-23T17:30:47.716Z,7.51
2024-02-23T17:33:14.168Z,7.47
2024-02-23T17:35:40.639Z,7.49
2024-02-23T17:38:07.771Z,7.50
2024-02-23T17:40:34.265Z,7.47
2024-02-23T17:43:00.653Z,7.37
2024-02-23T17:45:27.065Z,7.35
2024-02-23T17:47:55.602Z,7.26
2024-02-23T17:50:22.710Z,7.19
2024-02-23T17:52:49.357Z,7.15
2024-02-23T17:55:15.892Z,7.00
2024-02-23T17:57:42.319Z,6.92
2024-02-23T18:00:08.987Z,6.91
2024-02-23T18:02:35.378Z,6.86
2024-02-23T18:05:01.806Z,6.78
2024-02-23T18:07:28.338Z,6.73
2024-02-23T18:09:54.717Z,6.64
2024-02-23T18:12:21.172Z,6.63
2024-02-23T18:14:47.726Z,6.59
2024-02-23T18:17:14.245Z,6.56
2024-02-23T18:19:43.131Z,6.50
2024-02-23T18:22:10.706Z,6.39
2024-02-23T18:24:37.108Z,6.36
2024-02-23T18:27:03.728Z,6.33
2024-02-23T18:29:30.092Z,6.34
2024-02-23T18:31:56.501Z,6.28
2024-02-23T18:34:22.963Z,6.23
2024-02-23T18:36:49.354Z,6.27
2024-02-23T18:39:15.799Z,6.24
2024-02-23T18:41:42.205Z,6.30
2024-02-23T18:44:13.715Z,6.29
2024-02-23T18:46:40.641Z,6.26
2024-02-23T18:49:07.369Z,6.20
2024-02-23T18:51:33.790Z,6.17
2024-02-23T18:54:00.305Z,6.21
2024-02-23T18:56:26.789Z,6.24
2024-02-23T18:58:53.256Z,6.13
2024-02-23T19:01:19.619Z,6.08
2024-02-23T19:03:46.178Z,6.15
2024-02-23T19:06:13.025Z,6.12
2024-02-23T19:08:39.476Z,6.11
2024-02-23T19:11:06.831Z,6.09
2024-02-23T19:13:33.391Z,6.10
2024-02-23T19:15:59.769Z,6.08
2024-02-23T19:18:26.281Z,6.01
2024-02-23T19:20:52.849Z,6.07
2024-02-23T19:23:19.373Z,6.02
2024-02-23T19:25:45.792Z,5.96
2024-02-23T19:28:12.201Z,5.96
2024-02-23T19:30:43.653Z,5.94
2024-02-23T19:33:11.190Z,5.88
2024-02-23T19:35:37.800Z,5.89
2024-02-23T19:38:04.573Z,5.87
2024-02-23T19:40:31.163Z,5.91
2024-02-23T19:42:57.540Z,5.95
2024-02-23T19:45:26.434Z,5.88
2024-02-23T19:47:53.149Z,5.93
2024-02-23T19:50:19.630Z,5.96
2024-02-23T19:52:46.060Z,6.00
2024-02-23T19:55:12.432Z,6.04
2024-02-23T19:57:38.821Z,6.05
2024-02-23T20:00:07.563Z,6.02
2024-02-23T20:02:34.011Z,5.96
2024-02-23T20:05:00.623Z,6.02
2024-02-23T20:07:27.080Z,5.91
2024-02-23T20:09:53.603Z,5.75
2024-02-23T20:12:20.526Z,5.75
2024-02-23T20:14:47.813Z,5.56
2024-02-23T20:17:15.767Z,5.67
2024-02-23T20:19:42.367Z,5.66
2024-02-23T20:22:08.855Z,5.65
2024-02-23T20:24:36.869Z,5.52
2024-02-23T20:27:07.263Z,5.55
2024-02-23T20:29:36.949Z,5.60
2024-02-23T20:32:10.653Z,5.51
2024-02-23T20:34:42.586Z,5.46
2024-02-23T20:37:09.593Z,5.33
2024-02-23T20:39:36.045Z,5.24
2024-02-23T20:42:03.540Z,5.21
2024-02-23T20:44:30.026Z,5.25
2024-02-23T20:46:58.405Z,5.25
2024-02-23T20:49:26.327Z,5.25
2024-02-23T20:51:56.108Z,5.22
2024-02-23T20:54:22.653Z,5.21
2024-02-23T20:56:49.327Z,5.21
2024-02-23T20:59:15.723Z,5.25
2024-02-23T21:01:42.099Z,5.40
2024-02-23T21:04:08.467Z,5.57
2024-02-23T21:06:34.886Z,5.70
2024-02-23T21:09:01.805Z,5.85
2024-02-23T21:11:29.677Z,5.81
2024-02-23T21:13:56.519Z,5.89
2024-02-23T21:16:22.964Z,6.03
2024-02-23T21:18:49.630Z,6.02
2024-02-23T21:21:21.047Z,6.06
2024-02-23T21:23:48.229Z,6.16
2024-02-23T21:26:14.594Z,6.11
2024-02-23T21:28:41.105Z,6.10
2024-02-23T21:31:07.571Z,6.13
2024-02-23T21:33:34.073Z,6.13
2024-02-23T21:36:00.702Z,6.09
2024-02-23T21:38:27.227Z,6.05
2024-02-23T21:40:53.637Z,6.05
2024-02-23T21:43:20.027Z,6.10
2024-02-23T21:45:46.400Z,6.14
2024-02-23T21:48:12.890Z,6.05
2024-02-23T21:50:39.433Z,5.94
2024-02-23T21:53:05.851Z,5.92
2024-02-23T21:55:32.258Z,5.91
2024-02-23T21:57:58.894Z,5.85
2024-02-23T22:00:25.544Z,5.89
2024-02-23T22:02:51.910Z,5.81
2024-02-23T22:05:18.596Z,5.80
2024-02-23T22:07:45.039Z,5.78
2024-02-23T22:10:11.413Z,5.74
2024-02-23T22:12:37.842Z,5.74
2024-02-23T22:15:04.979Z,5.76
2024-02-23T22:17:31.445Z,5.69
2024-02-23T22:19:57.847Z,5.60
2024-02-23T22:22:25.607Z,5.53
2024-02-23T22:24:51.977Z,5.64
2024-02-23T22:27:18.384Z,5.67
2024-02-23T22:29:46.441Z,5.64
2024-02-23T22:32:13.068Z,5.62
2024-02-23T22:34:40.001Z,5.60
2024-02-23T22:37:06.521Z,5.59
2024-02-23T22:39:32.895Z,5.58
2024-02-23T22:41:59.434Z,5.54
2024-02-23T22:44:26.152Z,5.54
2024-02-23T22:46:55.520Z,5.56
2024-02-23T22:49:22.039Z,5.54
2024-02-23T22:51:48.422Z,5.47
2024-02-23T22:54:14.893Z,5.38
2024-02-23T22:56:41.512Z,5.28
2024-02-23T22:59:11.075Z,5.21
2024-02-23T23:01:40.837Z,5.15
2024-02-23T23:04:07.753Z,5.20
2024-02-23T23:06:35.545Z,5.07
2024-02-23T23:09:03.236Z,5.10
2024-02-23T23:11:29.872Z,5.14
2024-02-23T23:13:58.135Z,5.09
2024-02-23T23:16:24.754Z,5.12
2024-02-23T23:18:51.238Z,5.12
2024-02-23T23:21:17.685Z,5.12
2024-02-23T23:23:44.108Z,5.04
2024-02-23T23:26:10.617Z,4.99
2024-02-23T23:28:37.065Z,5.07
2024-02-23T23:31:03.599Z,5.12
2024-02-23T23:33:30.121Z,5.12
2024-02-23T23:35:56.623Z,5.11
2024-02-23T23:38:23.118Z,5.06
2024-02-23T23:40:49.462Z,5.00
2024-02-23T23:43:15.823Z,4.98
2024-02-23T23:45:42.278Z,4.96
2024-02-23T23:48:11.091Z,4.86
2024-02-23T23:50:38.155Z,4.81
2024-02-23T23:53:05.037Z,4.78
2024-02-23T23:55:31.439Z,4.74
2024-02-23T23:57:58.100Z,4.71
